sensor_id;sensor_type;location;lat;lon;timestamp;temperature;humidity
47618;DHT22;33336;36.728;-4.414;2022-08-19T00:03:07;26.40;79.50
47618;DHT22;33336;36.728;-4.414;2022-08-19T00:08:10;27.10;78.20
47618;DHT22;33336;36.728;-4.414;2022-08-19T00:13:13;27.60;76.10
47618;DHT22;33336;36.728;-4.414;2022-08-19T00:18:18;27.30;75.70
47618;DHT22;33336;36.728;-4.414;2022-08-19T00:23:21;27.00;75.10
47618;DHT22;33336;36.728;-4.414;2022-08-19T00:28:25;27.00;75.00
47618;DHT22;33336;36.728;-4.414;2022-08-19T00:33:29;27.60;74.50
47618;DHT22;33336;36.728;-4.414;2022-08-19T00:38:35;27.50;74.00
47618;DHT22;33336;36.728;-4.414;2022-08-19T00:43:38;27.00;73.80
47618;DHT22;33336;36.728;-4.414;2022-08-19T00:48:43;27.10;74.90
47618;DHT22;33336;36.728;-4.414;2022-08-19T00:53:46;27.40;74.20
47618;DHT22;33336;36.728;-4.414;2022-08-19T00:58:50;27.00;75.00
47618;DHT22;33336;36.728;-4.414;2022-08-19T01:03:54;27.40;75.00
47618;DHT22;33336;36.728;-4.414;2022-08-19T01:08:58;27.60;74.30
47618;DHT22;33336;36.728;-4.414;2022-08-19T01:14:02;27.60;74.10
47618;DHT22;33336;36.728;-4.414;2022-08-19T01:19:10;27.20;75.40
47618;DHT22;33336;36.728;-4.414;2022-08-19T01:24:16;27.30;74.50
47618;DHT22;33336;36.728;-4.414;2022-08-19T01:29:19;26.10;77.30
47618;DHT22;33336;36.728;-4.414;2022-08-19T01:34:21;25.90;78.00
47618;DHT22;33336;36.728;-4.414;2022-08-19T01:39:27;25.80;78.30
47618;DHT22;33336;36.728;-4.414;2022-08-19T01:44:31;25.70;77.30
47618;DHT22;33336;36.728;-4.414;2022-08-19T01:49:34;25.60;77.40
47618;DHT22;33336;36.728;-4.414;2022-08-19T01:54:38;25.60;77.70
47618;DHT22;33336;36.728;-4.414;2022-08-19T01:59:41;25.80;76.70
47618;DHT22;33336;36.728;-4.414;2022-08-19T02:04:45;25.70;76.20
47618;DHT22;33336;36.728;-4.414;2022-08-19T02:09:49;26.20;76.00
47618;DHT22;33336;36.728;-4.414;2022-08-19T02:14:52;25.40;76.60
47618;DHT22;33336;36.728;-4.414;2022-08-19T02:19:56;25.80;76.70
47618;DHT22;33336;36.728;-4.414;2022-08-19T02:25:00;26.00;77.80
47618;DHT22;33336;36.728;-4.414;2022-08-19T02:30:05;26.30;77.40
47618;DHT22;33336;36.728;-4.414;2022-08-19T02:35:09;26.60;77.00
47618;DHT22;33336;36.728;-4.414;2022-08-19T02:40:14;26.30;77.70
47618;DHT22;33336;36.728;-4.414;2022-08-19T02:45:19;26.20;77.80
47618;DHT22;33336;36.728;-4.414;2022-08-19T02:50:22;26.20;77.70
47618;DHT22;33336;36.728;-4.414;2022-08-19T02:55:26;26.40;77.60
47618;DHT22;33336;36.728;-4.414;2022-08-19T03:00:29;24.80;81.70
47618;DHT22;33336;36.728;-4.414;2022-08-19T03:05:31;24.80;82.10
47618;DHT22;33336;36.728;-4.414;2022-08-19T03:10:42;25.80;79.90
47618;DHT22;33336;36.728;-4.414;2022-08-19T03:15:47;26.10;78.60
47618;DHT22;33336;36.728;-4.414;2022-08-19T03:20:52;24.80;81.50
47618;DHT22;33336;36.728;-4.414;2022-08-19T03:25:57;25.30;80.90
47618;DHT22;33336;36.728;-4.414;2022-08-19T03:31:02;25.90;79.10
47618;DHT22;33336;36.728;-4.414;2022-08-19T03:36:08;26.30;78.00
47618;DHT22;33336;36.728;-4.414;2022-08-19T03:41:16;26.30;77.30
47618;DHT22;33336;36.728;-4.414;2022-08-19T03:46:21;26.40;76.50
47618;DHT22;33336;36.728;-4.414;2022-08-19T03:51:26;26.20;75.60
47618;DHT22;33336;36.728;-4.414;2022-08-19T03:56:32;25.80;76.70
47618;DHT22;33336;36.728;-4.414;2022-08-19T04:01:36;26.20;76.10
47618;DHT22;33336;36.728;-4.414;2022-08-19T04:06:39;26.30;75.60
47618;DHT22;33336;36.728;-4.414;2022-08-19T04:11:46;26.10;75.10
47618;DHT22;33336;36.728;-4.414;2022-08-19T04:16:50;26.20;74.40
47618;DHT22;33336;36.728;-4.414;2022-08-19T04:21:54;25.20;74.50
47618;DHT22;33336;36.728;-4.414;2022-08-19T04:26:59;25.50;73.90
47618;DHT22;33336;36.728;-4.414;2022-08-19T04:32:03;26.00;73.40
47618;DHT22;33336;36.728;-4.414;2022-08-19T04:37:06;26.20;73.00
47618;DHT22;33336;36.728;-4.414;2022-08-19T04:42:15;26.30;72.40
47618;DHT22;33336;36.728;-4.414;2022-08-19T04:47:35;26.20;72.70
47618;DHT22;33336;36.728;-4.414;2022-08-19T04:52:39;26.20;72.50
47618;DHT22;33336;36.728;-4.414;2022-08-19T04:57:45;26.40;72.20
47618;DHT22;33336;36.728;-4.414;2022-08-19T05:02:49;25.90;72.10
47618;DHT22;33336;36.728;-4.414;2022-08-19T05:07:51;25.70;73.00
47618;DHT22;33336;36.728;-4.414;2022-08-19T05:12:56;25.90;72.50
47618;DHT22;33336;36.728;-4.414;2022-08-19T05:17:59;26.10;71.90
47618;DHT22;33336;36.728;-4.414;2022-08-19T05:23:19;26.00;72.30
47618;DHT22;33336;36.728;-4.414;2022-08-19T05:28:23;26.10;72.10
47618;DHT22;33336;36.728;-4.414;2022-08-19T05:33:26;26.40;72.70
47618;DHT22;33336;36.728;-4.414;2022-08-19T05:38:30;25.90;73.00
47618;DHT22;33336;36.728;-4.414;2022-08-19T05:43:34;26.10;72.50
47618;DHT22;33336;36.728;-4.414;2022-08-19T05:48:38;26.40;72.10
47618;DHT22;33336;36.728;-4.414;2022-08-19T05:53:40;26.50;71.90
47618;DHT22;33336;36.728;-4.414;2022-08-19T05:58:45;26.00;72.80
47618;DHT22;33336;36.728;-4.414;2022-08-19T06:03:48;26.20;72.60
47618;DHT22;33336;36.728;-4.414;2022-08-19T06:08:52;25.60;73.90
47618;DHT22;33336;36.728;-4.414;2022-08-19T06:13:56;26.00;73.40
47618;DHT22;33336;36.728;-4.414;2022-08-19T06:19:02;25.40;74.50
47618;DHT22;33336;36.728;-4.414;2022-08-19T06:24:10;25.30;76.30
47618;DHT22;33336;36.728;-4.414;2022-08-19T06:29:16;25.90;75.20
47618;DHT22;33336;36.728;-4.414;2022-08-19T06:34:19;25.80;75.40
47618;DHT22;33336;36.728;-4.414;2022-08-19T06:39:25;26.20;73.80
47618;DHT22;33336;36.728;-4.414;2022-08-19T06:44:31;26.60;73.70
47618;DHT22;33336;36.728;-4.414;2022-08-19T06:49:38;26.80;72.30
47618;DHT22;33336;36.728;-4.414;2022-08-19T06:54:41;26.90;72.10
47618;DHT22;33336;36.728;-4.414;2022-08-19T06:59:46;27.00;72.20
47618;DHT22;33336;36.728;-4.414;2022-08-19T07:04:49;26.50;73.00
47618;DHT22;33336;36.728;-4.414;2022-08-19T07:09:53;26.40;74.00
47618;DHT22;33336;36.728;-4.414;2022-08-19T07:14:57;26.70;73.90
47618;DHT22;33336;36.728;-4.414;2022-08-19T07:20:01;27.30;73.10
47618;DHT22;33336;36.728;-4.414;2022-08-19T07:25:06;26.20;75.10
47618;DHT22;33336;36.728;-4.414;2022-08-19T07:30:12;27.10;74.30
47618;DHT22;33336;36.728;-4.414;2022-08-19T07:35:15;26.90;74.10
47618;DHT22;33336;36.728;-4.414;2022-08-19T07:40:21;26.90;75.00
47618;DHT22;33336;36.728;-4.414;2022-08-19T07:45:25;26.70;75.00
47618;DHT22;33336;36.728;-4.414;2022-08-19T07:50:30;26.40;76.70
47618;DHT22;33336;36.728;-4.414;2022-08-19T07:55:33;27.10;77.20
47618;DHT22;33336;36.728;-4.414;2022-08-19T08:00:38;26.90;81.40
47618;DHT22;33336;36.728;-4.414;2022-08-19T08:05:42;27.30;81.50
47618;DHT22;33336;36.728;-4.414;2022-08-19T08:11:03;27.20;83.00
47618;DHT22;33336;36.728;-4.414;2022-08-19T08:16:08;27.30;83.00
47618;DHT22;33336;36.728;-4.414;2022-08-19T08:21:12;27.70;83.00
47618;DHT22;33336;36.728;-4.414;2022-08-19T08:26:14;27.10;84.50
47618;DHT22;33336;36.728;-4.414;2022-08-19T08:31:20;26.90;85.90
47618;DHT22;33336;36.728;-4.414;2022-08-19T08:36:24;26.80;87.00
47618;DHT22;33336;36.728;-4.414;2022-08-19T08:41:31;27.10;86.20
47618;DHT22;33336;36.728;-4.414;2022-08-19T08:46:42;27.60;85.00
47618;DHT22;33336;36.728;-4.414;2022-08-19T08:51:50;28.00;83.70
47618;DHT22;33336;36.728;-4.414;2022-08-19T08:56:54;27.90;83.90
47618;DHT22;33336;36.728;-4.414;2022-08-19T09:02:00;27.70;84.70
47618;DHT22;33336;36.728;-4.414;2022-08-19T09:07:22;27.80;85.10
47618;DHT22;33336;36.728;-4.414;2022-08-19T09:12:35;27.40;86.50
47618;DHT22;33336;36.728;-4.414;2022-08-19T09:17:40;27.70;86.00
47618;DHT22;33336;36.728;-4.414;2022-08-19T09:22:44;27.80;85.40
47618;DHT22;33336;36.728;-4.414;2022-08-19T09:27:46;27.70;85.50
47618;DHT22;33336;36.728;-4.414;2022-08-19T09:32:52;28.10;84.10
47618;DHT22;33336;36.728;-4.414;2022-08-19T09:37:56;27.50;85.90
47618;DHT22;33336;36.728;-4.414;2022-08-19T09:42:59;27.50;87.30
47618;DHT22;33336;36.728;-4.414;2022-08-19T09:48:05;27.40;87.80
47618;DHT22;33336;36.728;-4.414;2022-08-19T09:53:08;28.20;85.70
47618;DHT22;33336;36.728;-4.414;2022-08-19T09:58:11;28.30;86.00
47618;DHT22;33336;36.728;-4.414;2022-08-19T10:03:16;28.10;85.40
47618;DHT22;33336;36.728;-4.414;2022-08-19T10:08:21;29.00;84.10
47618;DHT22;33336;36.728;-4.414;2022-08-19T10:13:27;29.30;83.40
47618;DHT22;33336;36.728;-4.414;2022-08-19T10:18:32;29.10;83.50
47618;DHT22;33336;36.728;-4.414;2022-08-19T10:23:37;28.20;86.70
47618;DHT22;33336;36.728;-4.414;2022-08-19T10:28:40;27.70;88.30
47618;DHT22;33336;36.728;-4.414;2022-08-19T10:33:45;27.60;88.50
47618;DHT22;33336;36.728;-4.414;2022-08-19T10:38:51;27.50;90.00
47618;DHT22;33336;36.728;-4.414;2022-08-19T10:43:56;28.20;88.10
47618;DHT22;33336;36.728;-4.414;2022-08-19T10:49:01;28.70;86.30
47618;DHT22;33336;36.728;-4.414;2022-08-19T10:54:05;28.40;86.90
47618;DHT22;33336;36.728;-4.414;2022-08-19T10:59:08;28.60;87.40
47618;DHT22;33336;36.728;-4.414;2022-08-19T11:04:13;28.30;89.90
47618;DHT22;33336;36.728;-4.414;2022-08-19T11:09:20;28.10;90.00
47618;DHT22;33336;36.728;-4.414;2022-08-19T11:14:25;27.90;90.60
47618;DHT22;33336;36.728;-4.414;2022-08-19T11:19:30;27.90;90.40
47618;DHT22;33336;36.728;-4.414;2022-08-19T11:24:33;28.40;90.00
47618;DHT22;33336;36.728;-4.414;2022-08-19T11:29:38;28.80;89.30
47618;DHT22;33336;36.728;-4.414;2022-08-19T11:34:43;28.80;88.60
47618;DHT22;33336;36.728;-4.414;2022-08-19T11:39:46;28.90;88.50
47618;DHT22;33336;36.728;-4.414;2022-08-19T11:44:50;28.80;88.50
47618;DHT22;33336;36.728;-4.414;2022-08-19T11:49:54;29.30;86.30
47618;DHT22;33336;36.728;-4.414;2022-08-19T11:54:57;29.40;86.20
47618;DHT22;33336;36.728;-4.414;2022-08-19T12:00:00;29.30;86.30
47618;DHT22;33336;36.728;-4.414;2022-08-19T12:05:07;29.60;85.90
47618;DHT22;33336;36.728;-4.414;2022-08-19T12:10:10;30.20;84.10
47618;DHT22;33336;36.728;-4.414;2022-08-19T12:15:13;29.90;83.80
47618;DHT22;33336;36.728;-4.414;2022-08-19T12:20:18;29.90;83.20
47618;DHT22;33336;36.728;-4.414;2022-08-19T12:25:21;30.50;82.00
47618;DHT22;33336;36.728;-4.414;2022-08-19T12:30:24;30.50;80.40
47618;DHT22;33336;36.728;-4.414;2022-08-19T12:35:29;30.20;80.20
47618;DHT22;33336;36.728;-4.414;2022-08-19T12:40:32;30.60;80.00
47618;DHT22;33336;36.728;-4.414;2022-08-19T12:45:35;31.00;78.40
47618;DHT22;33336;36.728;-4.414;2022-08-19T12:50:40;31.20;77.50
47618;DHT22;33336;36.728;-4.414;2022-08-19T12:55:43;31.70;77.20
47618;DHT22;33336;36.728;-4.414;2022-08-19T13:00:46;31.70;76.50
47618;DHT22;33336;36.728;-4.414;2022-08-19T13:05:51;32.00;75.50
47618;DHT22;33336;36.728;-4.414;2022-08-19T13:10:54;32.10;74.60
47618;DHT22;33336;36.728;-4.414;2022-08-19T13:16:00;32.50;73.70
47618;DHT22;33336;36.728;-4.414;2022-08-19T13:21:08;33.00;73.20
47618;DHT22;33336;36.728;-4.414;2022-08-19T13:26:13;31.70;74.00
47618;DHT22;33336;36.728;-4.414;2022-08-19T13:31:17;32.80;72.80
47618;DHT22;33336;36.728;-4.414;2022-08-19T13:36:39;33.20;71.10
47618;DHT22;33336;36.728;-4.414;2022-08-19T13:41:45;33.00;71.80
47618;DHT22;33336;36.728;-4.414;2022-08-19T13:46:50;32.90;72.10
47618;DHT22;33336;36.728;-4.414;2022-08-19T13:51:54;33.20;72.30
47618;DHT22;33336;36.728;-4.414;2022-08-19T13:56:57;32.70;72.10
47618;DHT22;33336;36.728;-4.414;2022-08-19T14:02:00;32.00;72.50
47618;DHT22;33336;36.728;-4.414;2022-08-19T14:07:05;32.20;72.20
47618;DHT22;33336;36.728;-4.414;2022-08-19T14:12:08;32.10;72.40
47618;DHT22;33336;36.728;-4.414;2022-08-19T14:17:11;33.10;70.80
47618;DHT22;33336;36.728;-4.414;2022-08-19T14:22:16;33.50;70.40
47618;DHT22;33336;36.728;-4.414;2022-08-19T14:27:20;33.60;69.20
47618;DHT22;33336;36.728;-4.414;2022-08-19T14:32:26;34.10;70.10
47618;DHT22;33336;36.728;-4.414;2022-08-19T14:37:31;33.50;69.80
47618;DHT22;33336;36.728;-4.414;2022-08-19T14:42:35;33.00;70.90
47618;DHT22;33336;36.728;-4.414;2022-08-19T14:47:39;33.10;71.70
47618;DHT22;33336;36.728;-4.414;2022-08-19T14:52:43;33.90;71.40
47618;DHT22;33336;36.728;-4.414;2022-08-19T14:57:46;34.20;71.50
47618;DHT22;33336;36.728;-4.414;2022-08-19T15:02:50;33.40;72.50
47618;DHT22;33336;36.728;-4.414;2022-08-19T15:07:55;34.60;71.20
47618;DHT22;33336;36.728;-4.414;2022-08-19T15:12:58;35.00;70.00
47618;DHT22;33336;36.728;-4.414;2022-08-19T15:18:01;35.30;70.00
47618;DHT22;33336;36.728;-4.414;2022-08-19T15:23:06;34.40;71.10
47618;DHT22;33336;36.728;-4.414;2022-08-19T15:28:10;36.30;69.30
47618;DHT22;33336;36.728;-4.414;2022-08-19T15:33:13;37.90;66.80
47618;DHT22;33336;36.728;-4.414;2022-08-19T15:38:18;37.00;66.80
47618;DHT22;33336;36.728;-4.414;2022-08-19T15:43:22;38.20;65.60
47618;DHT22;33336;36.728;-4.414;2022-08-19T15:48:25;38.90;64.60
47618;DHT22;33336;36.728;-4.414;2022-08-19T15:53:30;39.30;62.10
47618;DHT22;33336;36.728;-4.414;2022-08-19T15:58:33;37.80;65.10
47618;DHT22;33336;36.728;-4.414;2022-08-19T16:03:55;38.60;63.80
47618;DHT22;33336;36.728;-4.414;2022-08-19T16:09:20;39.10;63.50
47618;DHT22;33336;36.728;-4.414;2022-08-19T16:14:24;39.50;63.80
47618;DHT22;33336;36.728;-4.414;2022-08-19T16:19:27;40.90;60.50
47618;DHT22;33336;36.728;-4.414;2022-08-19T16:24:34;40.70;60.10
47618;DHT22;33336;36.728;-4.414;2022-08-19T16:29:37;43.10;57.20
47618;DHT22;33336;36.728;-4.414;2022-08-19T16:34:40;41.20;58.50
47618;DHT22;33336;36.728;-4.414;2022-08-19T16:39:45;43.00;56.30
47618;DHT22;33336;36.728;-4.414;2022-08-19T16:44:48;42.60;56.20
47618;DHT22;33336;36.728;-4.414;2022-08-19T16:49:51;42.80;56.50
47618;DHT22;33336;36.728;-4.414;2022-08-19T16:54:55;40.70;55.70
47618;DHT22;33336;36.728;-4.414;2022-08-19T16:59:59;41.60;56.30
47618;DHT22;33336;36.728;-4.414;2022-08-19T17:05:08;41.80;54.90
47618;DHT22;33336;36.728;-4.414;2022-08-19T17:10:14;42.80;56.60
47618;DHT22;33336;36.728;-4.414;2022-08-19T17:15:17;44.60;53.00
47618;DHT22;33336;36.728;-4.414;2022-08-19T17:20:20;44.40;51.90
47618;DHT22;33336;36.728;-4.414;2022-08-19T17:25:26;45.70;51.70
47618;DHT22;33336;36.728;-4.414;2022-08-19T17:30:31;44.90;52.10
47618;DHT22;33336;36.728;-4.414;2022-08-19T17:35:34;45.40;50.90
47618;DHT22;33336;36.728;-4.414;2022-08-19T17:40:39;42.70;52.60
47618;DHT22;33336;36.728;-4.414;2022-08-19T17:45:43;42.90;51.60
47618;DHT22;33336;36.728;-4.414;2022-08-19T17:50:46;44.80;50.50
47618;DHT22;33336;36.728;-4.414;2022-08-19T17:55:53;44.00;50.40
47618;DHT22;33336;36.728;-4.414;2022-08-19T18:00:56;42.60;51.70
47618;DHT22;33336;36.728;-4.414;2022-08-19T18:06:01;43.10;50.10
47618;DHT22;33336;36.728;-4.414;2022-08-19T18:11:09;44.20;50.10
47618;DHT22;33336;36.728;-4.414;2022-08-19T18:16:13;42.30;49.80
47618;DHT22;33336;36.728;-4.414;2022-08-19T18:21:18;42.80;50.00
47618;DHT22;33336;36.728;-4.414;2022-08-19T18:26:23;41.70;49.20
47618;DHT22;33336;36.728;-4.414;2022-08-19T18:31:26;42.30;49.80
47618;DHT22;33336;36.728;-4.414;2022-08-19T18:36:30;40.80;49.80
47618;DHT22;33336;36.728;-4.414;2022-08-19T18:41:35;40.30;51.40
47618;DHT22;33336;36.728;-4.414;2022-08-19T18:46:51;38.20;53.10
47618;DHT22;33336;36.728;-4.414;2022-08-19T18:52:12;37.80;52.50
47618;DHT22;33336;36.728;-4.414;2022-08-19T18:57:17;35.50;53.70
47618;DHT22;33336;36.728;-4.414;2022-08-19T19:02:25;32.20;59.20
47618;DHT22;33336;36.728;-4.414;2022-08-19T19:07:28;31.50;59.70
47618;DHT22;33336;36.728;-4.414;2022-08-19T19:12:36;32.60;60.50
47618;DHT22;33336;36.728;-4.414;2022-08-19T19:17:41;32.50;61.70
47618;DHT22;33336;36.728;-4.414;2022-08-19T19:22:45;31.90;61.90
47618;DHT22;33336;36.728;-4.414;2022-08-19T19:27:49;31.20;63.70
47618;DHT22;33336;36.728;-4.414;2022-08-19T19:32:56;30.80;64.30
47618;DHT22;33336;36.728;-4.414;2022-08-19T19:38:01;30.80;64.60
47618;DHT22;33336;36.728;-4.414;2022-08-19T19:43:06;30.90;64.60
47618;DHT22;33336;36.728;-4.414;2022-08-19T19:48:08;30.40;65.60
47618;DHT22;33336;36.728;-4.414;2022-08-19T19:53:16;30.00;65.90
47618;DHT22;33336;36.728;-4.414;2022-08-19T19:58:21;29.80;66.50
47618;DHT22;33336;36.728;-4.414;2022-08-19T20:03:25;29.60;67.10
47618;DHT22;33336;36.728;-4.414;2022-08-19T20:08:28;29.60;67.90
47618;DHT22;33336;36.728;-4.414;2022-08-19T20:13:51;29.70;68.00
47618;DHT22;33336;36.728;-4.414;2022-08-19T20:18:54;30.10;67.30
47618;DHT22;33336;36.728;-4.414;2022-08-19T20:23:58;29.20;68.90
47618;DHT22;33336;36.728;-4.414;2022-08-19T20:29:03;29.00;69.60
47618;DHT22;33336;36.728;-4.414;2022-08-19T20:34:07;29.00;69.10
47618;DHT22;33336;36.728;-4.414;2022-08-19T20:39:10;29.30;68.50
47618;DHT22;33336;36.728;-4.414;2022-08-19T20:44:15;29.20;68.50
47618;DHT22;33336;36.728;-4.414;2022-08-19T20:49:18;29.40;68.20
47618;DHT22;33336;36.728;-4.414;2022-08-19T20:54:21;29.60;67.60
47618;DHT22;33336;36.728;-4.414;2022-08-19T20:59:26;29.30;67.90
47618;DHT22;33336;36.728;-4.414;2022-08-19T21:04:29;28.70;69.20
47618;DHT22;33336;36.728;-4.414;2022-08-19T21:09:33;28.70;68.60
47618;DHT22;33336;36.728;-4.414;2022-08-19T21:14:39;29.20;68.10
47618;DHT22;33336;36.728;-4.414;2022-08-19T21:19:42;28.70;68.60
47618;DHT22;33336;36.728;-4.414;2022-08-19T21:24:45;28.50;68.70
47618;DHT22;33336;36.728;-4.414;2022-08-19T21:29:50;28.70;68.50
47618;DHT22;33336;36.728;-4.414;2022-08-19T21:34:55;27.90;69.80
47618;DHT22;33336;36.728;-4.414;2022-08-19T21:39:58;28.70;68.40
47618;DHT22;33336;36.728;-4.414;2022-08-19T21:45:03;28.80;67.70
47618;DHT22;33336;36.728;-4.414;2022-08-19T21:50:08;28.10;68.70
47618;DHT22;33336;36.728;-4.414;2022-08-19T21:55:13;28.00;69.70
47618;DHT22;33336;36.728;-4.414;2022-08-19T22:00:21;28.30;69.10
47618;DHT22;33336;36.728;-4.414;2022-08-19T22:05:25;27.90;69.40
47618;DHT22;33336;36.728;-4.414;2022-08-19T22:10:31;28.70;67.70
47618;DHT22;33336;36.728;-4.414;2022-08-19T22:15:36;29.00;65.50
47618;DHT22;33336;36.728;-4.414;2022-08-19T22:20:39;29.00;65.60
47618;DHT22;33336;36.728;-4.414;2022-08-19T22:25:44;28.80;65.60
47618;DHT22;33336;36.728;-4.414;2022-08-19T22:30:48;29.20;65.30
47618;DHT22;33336;36.728;-4.414;2022-08-19T22:35:52;28.60;65.10
47618;DHT22;33336;36.728;-4.414;2022-08-19T22:40:55;29.00;64.60
47618;DHT22;33336;36.728;-4.414;2022-08-19T22:46:00;29.00;63.70
47618;DHT22;33336;36.728;-4.414;2022-08-19T22:51:03;28.90;62.20
47618;DHT22;33336;36.728;-4.414;2022-08-19T22:56:23;28.90;63.10
47618;DHT22;33336;36.728;-4.414;2022-08-19T23:01:28;28.70;62.50
47618;DHT22;33336;36.728;-4.414;2022-08-19T23:06:31;28.30;63.20
47618;DHT22;33336;36.728;-4.414;2022-08-19T23:11:36;28.40;63.30
47618;DHT22;33336;36.728;-4.414;2022-08-19T23:16:42;28.50;62.70
47618;DHT22;33336;36.728;-4.414;2022-08-19T23:21:47;28.10;63.00
47618;DHT22;33336;36.728;-4.414;2022-08-19T23:26:50;28.30;62.70
47618;DHT22;33336;36.728;-4.414;2022-08-19T23:32:12;28.00;63.20
47618;DHT22;33336;36.728;-4.414;2022-08-19T23:37:15;28.30;63.00
47618;DHT22;33336;36.728;-4.414;2022-08-19T23:42:18;28.40;63.10
47618;DHT22;33336;36.728;-4.414;2022-08-19T23:47:24;27.70;63.40
47618;DHT22;33336;36.728;-4.414;2022-08-19T23:52:26;27.80;63.50
47618;DHT22;33336;36.728;-4.414;2022-08-19T23:57:30;28.10;63.30
